Time;durP1;ratioP1;P1;durP2;ratioP2;P2;SDS_P1;SDS_P2;PMS_P1;PMS_P2;Temp;Humidity;BMP_temperature;BMP_pressure;BME280_temperature;BME280_humidity;BME280_pressure;Samples;Min_cycle;Max_cycle;Signal;HPM_P1;HPM_P2
2023/06/27 00:05:16;;;;;;;6.07;5.47;;;20.00;99.90;;;;;;10356012;28;20245;-78
2023/06/27 00:10:38;;;;;;;5.55;4.72;;;20.00;99.90;;;;;;10359011;28;20346;-77
2023/06/27 00:16:00;;;;;;;6.88;5.43;;;20.00;99.90;;;;;;10355729;28;20221;-78
2023/06/27 00:21:28;;;;;;;7.88;5.72;;;19.90;99.90;;;;;;10360022;28;20285;-78
2023/06/27 00:26:50;;;;;;;6.85;5.97;;;19.80;99.90;;;;;;10354594;28;20515;-78
2023/06/27 00:32:14;;;;;;;6.47;5.38;;;19.70;99.90;;;;;;10357476;28;20473;-77
2023/06/27 00:37:35;;;;;;;6.57;5.57;;;19.70;99.90;;;;;;10359266;28;20439;-78
2023/06/27 00:42:57;;;;;;;7.75;5.95;;;19.70;99.90;;;;;;10353614;28;20414;-78
2023/06/27 00:48:19;;;;;;;6.68;5.97;;;19.60;99.90;;;;;;10371888;28;20477;-77
2023/06/27 00:53:40;;;;;;;9.02;6.65;;;19.60;99.90;;;;;;10360838;28;20434;-77
2023/06/27 00:59:02;;;;;;;10.82;5.53;;;19.50;99.90;;;;;;10317353;28;20237;-77
2023/06/27 01:04:24;;;;;;;9.38;3.85;;;19.50;99.90;;;;;;10331498;28;20296;-76
2023/06/27 01:09:50;;;;;;;3.63;2.40;;;19.40;99.90;;;;;;10342103;28;20232;-76
2023/06/27 01:15:13;;;;;;;3.30;2.10;;;19.20;99.90;;;;;;10351552;28;20292;-76
2023/06/27 01:20:35;;;;;;;7.47;2.72;;;18.90;99.90;;;;;;10353723;28;20197;-76
2023/06/27 01:26:09;;;;;;;4.05;1.83;;;18.60;99.90;;;;;;10357520;28;20256;-78
2023/06/27 01:32:11;;;;;;;6.72;2.70;;;18.40;99.90;;;;;;10358566;28;20222;-75
2023/06/27 01:37:39;;;;;;;3.45;1.60;;;18.10;99.90;;;;;;10356672;28;20228;-75
2023/06/27 01:43:06;;;;;;;5.05;1.60;;;17.80;99.90;;;;;;10355040;28;20202;-77
2023/06/27 01:48:28;;;;;;;3.72;1.75;;;17.50;99.90;;;;;;10356641;28;20198;-78
2023/06/27 01:53:50;;;;;;;3.17;1.67;;;17.30;99.90;;;;;;10322706;28;20210;-79
2023/06/27 01:59:11;;;;;;;3.28;1.80;;;17.30;99.90;;;;;;10314715;28;20237;-76
2023/06/27 02:04:33;;;;;;;5.63;2.22;;;17.30;99.90;;;;;;10353772;28;20310;-77
2023/06/27 02:09:54;;;;;;;3.88;1.73;;;17.40;99.90;;;;;;10351946;28;20200;-79
2023/06/27 02:15:15;;;;;;;7.70;2.17;;;17.40;99.90;;;;;;10314281;28;20460;-78
2023/06/27 02:20:38;;;;;;;4.70;2.15;;;17.50;99.90;;;;;;10336088;28;20294;-79
2023/06/27 02:26:02;;;;;;;5.38;2.10;;;17.60;99.90;;;;;;10368155;28;20186;-79
2023/06/27 02:31:24;;;;;;;4.28;1.70;;;17.70;99.90;;;;;;10344919;28;20425;-79
2023/06/27 02:36:45;;;;;;;4.30;1.90;;;17.70;99.90;;;;;;10355064;28;20235;-77
2023/06/27 02:42:07;;;;;;;7.32;2.50;;;17.70;99.90;;;;;;10335589;28;20202;-75
2023/06/27 02:47:28;;;;;;;7.03;1.92;;;17.70;99.90;;;;;;10348800;28;20208;-78
2023/06/27 02:52:50;;;;;;;4.95;2.20;;;17.70;99.90;;;;;;10354501;28;20195;-77
2023/06/27 02:58:11;;;;;;;7.15;2.50;;;17.80;99.90;;;;;;10340020;28;20236;-78
2023/06/27 03:03:35;;;;;;;10.43;2.08;;;17.70;99.90;;;;;;10367293;28;20260;-77
2023/06/27 03:08:58;;;;;;;9.43;2.40;;;17.60;99.90;;;;;;10367597;28;20201;-78
2023/06/27 03:14:19;;;;;;;8.63;2.53;;;17.60;99.90;;;;;;10353666;28;20224;-78
2023/06/27 03:19:44;;;;;;;10.27;2.60;;;17.60;99.90;;;;;;10353025;28;20523;-78
2023/06/27 03:25:10;;;;;;;6.00;2.47;;;17.60;99.90;;;;;;10326796;28;20506;-77
2023/06/27 03:30:32;;;;;;;6.05;1.98;;;17.50;99.90;;;;;;10293071;28;20204;-78
2023/06/27 03:35:55;;;;;;;8.43;2.20;;;17.40;99.90;;;;;;10334130;28;20252;-77
2023/06/27 03:41:17;;;;;;;11.95;2.40;;;17.40;99.90;;;;;;10313297;28;20288;-78
2023/06/27 03:46:39;;;;;;;8.90;2.63;;;17.40;99.90;;;;;;10360092;28;20200;-78
2023/06/27 03:52:00;;;;;;;5.55;2.08;;;17.40;99.90;;;;;;10360189;28;20226;-77
2023/06/27 03:57:23;;;;;;;7.97;2.10;;;17.30;99.90;;;;;;10338526;28;20455;-76
2023/06/27 04:02:44;;;;;;;9.10;1.88;;;17.20;99.90;;;;;;10319270;28;20480;-76
2023/06/27 04:08:07;;;;;;;2.50;1.60;;;17.20;99.90;;;;;;10319194;28;20203;-77
2023/06/27 04:13:28;;;;;;;7.68;2.00;;;17.20;99.90;;;;;;10318579;28;20220;-77
2023/06/27 04:18:49;;;;;;;4.88;1.73;;;17.20;99.90;;;;;;10327207;28;20278;-78
2023/06/27 04:24:10;;;;;;;7.57;2.08;;;17.10;99.90;;;;;;10359885;28;20208;-78
2023/06/27 04:29:32;;;;;;;7.85;2.15;;;17.10;99.90;;;;;;10345140;28;20230;-78
2023/06/27 04:34:57;;;;;;;6.53;2.13;;;17.10;99.90;;;;;;10326919;28;20204;-77
2023/06/27 04:40:18;;;;;;;6.57;2.10;;;17.20;99.90;;;;;;10316770;28;20208;-78
2023/06/27 04:45:40;;;;;;;10.05;1.80;;;17.20;99.90;;;;;;10369313;28;20203;-77
2023/06/27 04:51:01;;;;;;;6.13;2.10;;;17.20;99.90;;;;;;10358803;28;20197;-76
2023/06/27 04:56:23;;;;;;;9.95;1.85;;;17.20;99.90;;;;;;10357769;28;20219;-77
2023/06/27 05:01:45;;;;;;;6.75;2.00;;;17.20;99.90;;;;;;10343327;28;20423;-78
2023/06/27 05:07:06;;;;;;;7.63;2.40;;;17.10;99.90;;;;;;10343339;28;20209;-76
2023/06/27 05:12:28;;;;;;;4.82;1.80;;;17.20;99.90;;;;;;10329597;28;20202;-76
2023/06/27 05:17:53;;;;;;;5.03;2.10;;;17.30;99.90;;;;;;10357571;28;20229;-79
2023/06/27 05:23:14;;;;;;;5.65;1.92;;;17.30;99.90;;;;;;10356377;28;20331;-75
2023/06/27 05:28:36;;;;;;;11.63;2.28;;;17.30;99.90;;;;;;10356398;28;20204;-78
2023/06/27 05:33:57;;;;;;;6.32;2.17;;;17.40;99.90;;;;;;10330935;28;20205;-79
2023/06/27 05:39:18;;;;;;;5.55;1.92;;;17.40;99.90;;;;;;10302152;28;20243;-78
2023/06/27 05:44:39;;;;;;;5.45;2.00;;;17.40;99.90;;;;;;10346031;28;20224;-78
2023/06/27 05:50:01;;;;;;;8.07;2.38;;;17.30;99.90;;;;;;10356428;28;20483;-76
2023/06/27 05:55:22;;;;;;;7.65;2.95;;;17.40;99.90;;;;;;10356466;28;20491;-79
2023/06/27 06:00:44;;;;;;;9.77;2.13;;;17.40;99.90;;;;;;10355383;28;20271;-78
2023/06/27 06:06:05;;;;;;;6.65;1.98;;;17.40;99.90;;;;;;10355969;28;20542;-78
2023/06/27 06:11:27;;;;;;;5.53;1.90;;;17.40;99.90;;;;;;10354514;28;20208;-78
2023/06/27 06:16:48;;;;;;;9.18;3.10;;;17.50;99.90;;;;;;10355816;28;20410;-79
2023/06/27 06:22:09;;;;;;;9.95;2.80;;;17.60;99.90;;;;;;10355384;28;20277;-78
2023/06/27 06:27:30;;;;;;;8.63;2.15;;;17.70;99.90;;;;;;10354333;28;20296;-78
2023/06/27 06:32:51;;;;;;;7.07;1.83;;;17.70;99.90;;;;;;10339462;28;20256;-80
2023/06/27 06:38:13;;;;;;;7.45;1.90;;;17.80;99.90;;;;;;10314777;28;20459;-78
2023/06/27 06:43:34;;;;;;;5.10;1.83;;;17.80;99.90;;;;;;10335192;28;20232;-77
2023/06/27 06:48:55;;;;;;;8.10;2.40;;;18.00;99.90;;;;;;10354797;28;20271;-77
2023/06/27 06:54:17;;;;;;;8.77;2.15;;;18.20;99.90;;;;;;10354492;28;20419;-78
2023/06/27 06:59:39;;;;;;;6.90;1.90;;;18.80;99.90;;;;;;10354560;28;20224;-79
2023/06/27 07:05:00;;;;;;;8.20;1.95;;;19.40;99.90;;;;;;10361165;28;20229;-77
2023/06/27 07:10:21;;;;;;;9.82;1.95;;;20.10;1.00;;;;;;10318942;28;20366;-79
2023/06/27 07:15:43;;;;;;;4.25;1.58;;;20.40;99.90;;;;;;10350358;28;20222;-79
2023/06/27 07:21:04;;;;;;;5.78;1.92;;;21.00;86.90;;;;;;10356398;28;20201;-79
2023/06/27 07:26:26;;;;;;;5.20;1.40;;;21.00;1.00;;;;;;10355996;28;20277;-79
2023/06/27 07:31:47;;;;;;;4.20;1.45;;;20.60;1.00;;;;;;10341875;28;20203;-79
2023/06/27 07:37:09;;;;;;;8.38;2.00;;;19.90;99.90;;;;;;10320210;28;20415;-78
2023/06/27 07:42:31;;;;;;;6.78;1.80;;;20.70;76.60;;;;;;10336512;28;20213;-80
2023/06/27 07:47:52;;;;;;;5.95;1.73;;;20.90;1.00;;;;;;10339761;28;20236;-78
2023/06/27 07:53:15;;;;;;;6.10;1.98;;;20.60;1.00;;;;;;10351032;28;20201;-79
2023/06/27 07:58:36;;;;;;;7.75;2.17;;;20.60;10.90;;;;;;10316585;28;20263;-81
2023/06/27 08:03:58;;;;;;;6.50;1.80;;;20.90;8.00;;;;;;10351114;28;20532;-80
2023/06/27 08:09:20;;;;;;;3.67;1.52;;;21.10;1.00;;;;;;10352771;28;20198;-78
2023/06/27 08:14:43;;;;;;;7.95;1.83;;;20.80;1.00;;;;;;10336830;28;20806;-79
2023/06/27 08:20:07;;;;;;;5.82;2.13;;;20.50;1.00;;;;;;10354789;28;20264;-81
2023/06/27 08:25:28;;;;;;;3.05;1.70;;;19.90;1.00;;;;;;10354671;28;20201;-79
2023/06/27 08:30:50;;;;;;;6.20;1.77;;;19.80;99.90;;;;;;10354749;28;20193;-79
2023/06/27 08:36:12;;;;;;;7.63;2.30;;;19.70;99.90;;;;;;10329401;28;20519;-83
2023/06/27 08:41:33;;;;;;;7.38;1.92;;;20.20;99.90;;;;;;10353682;28;20237;-77
2023/06/27 08:47:00;;;;;;;3.63;1.45;;;21.00;1.00;;;;;;10342675;28;20289;-77
2023/06/27 08:52:22;;;;;;;4.97;1.60;;;21.40;1.00;;;;;;10340421;28;20209;-81
2023/06/27 08:57:46;;;;;;;5.28;1.92;;;21.30;1.00;;;;;;10343820;28;20478;-78
2023/06/27 09:03:08;;;;;;;5.20;1.77;;;20.70;1.00;;;;;;10351078;28;20230;-82
2023/06/27 09:08:29;;;;;;;7.47;2.25;;;20.70;41.30;;;;;;10298097;28;20198;-81
2023/06/27 09:13:51;;;;;;;6.25;2.15;;;20.60;1.00;;;;;;10309591;28;20292;-80
2023/06/27 09:19:13;;;;;;;8.98;2.20;;;20.20;1.00;;;;;;10361113;28;20237;-78
2023/06/27 09:24:40;;;;;;;8.32;2.35;;;19.60;1.00;;;;;;10348282;28;20501;-82
2023/06/27 09:30:04;;;;;;;5.75;1.92;;;19.00;99.90;;;;;;10346074;28;20221;-79
2023/06/27 09:35:27;;;;;;;7.03;2.40;;;18.80;99.90;;;;;;10345745;28;20198;-80
2023/06/27 09:41:02;;;;;;;6.68;2.45;;;19.80;1.00;;;;;;10342442;28;20198;-85
2023/06/27 09:46:23;;;;;;;7.82;2.60;;;20.90;99.90;;;;;;10316732;28;20407;-79
2023/06/27 09:51:49;;;;;;;7.10;2.45;;;20.80;99.90;;;;;;10342582;28;20217;-79
2023/06/27 09:57:16;;;;;;;4.72;2.05;;;20.70;31.90;;;;;;10322645;28;20289;-79
2023/06/27 10:02:38;;;;;;;10.23;2.85;;;21.50;1.00;;;;;;10318052;28;20241;-80
2023/06/27 10:07:59;;;;;;;4.82;2.17;;;21.20;1.00;;;;;;10325962;28;20512;-78
2023/06/27 10:13:21;;;;;;;6.60;2.00;;;20.60;1.00;;;;;;10324241;28;20374;-84
2023/06/27 10:18:43;;;;;;;7.30;2.35;;;20.20;1.00;;;;;;10321302;28;20301;-81
2023/06/27 10:24:06;;;;;;;5.50;2.00;;;20.40;1.00;;;;;;10331589;28;20228;-79
2023/06/27 10:29:31;;;;;;;12.10;2.00;;;21.30;1.00;;;;;;10335690;28;20456;-79
2023/06/27 10:34:58;;;;;;;9.13;5.22;;;22.10;1.00;;;;;;10340890;28;20203;-86
2023/06/27 10:40:20;;;;;;;7.10;1.90;;;22.60;1.00;;;;;;10294460;28;20281;-80
2023/06/27 10:45:41;;;;;;;5.78;1.95;;;23.10;1.00;;;;;;10330408;28;20202;-79
2023/06/27 10:51:10;;;;;;;5.78;1.88;;;22.70;1.00;;;;;;10344478;28;20512;-81
2023/06/27 10:56:37;;;;;;;7.03;2.10;;;22.00;1.00;;;;;;10306037;28;20529;-78
2023/06/27 11:02:04;;;;;;;4.38;1.80;;;21.80;1.00;;;;;;10323422;28;20241;-81
2023/06/27 11:07:36;;;;;;;11.25;2.20;;;22.20;1.00;;;;;;10323807;28;20475;-80
2023/06/27 11:13:21;;;;;;;12.57;2.10;;;22.80;99.90;;;;;;10345293;28;20233;-84
2023/06/27 11:18:42;;;;;;;5.82;1.60;;;23.50;99.90;;;;;;10347248;28;20225;-81
2023/06/27 11:24:04;;;;;;;8.52;1.52;;;23.90;1.00;;;;;;10340379;28;20194;-78
2023/06/27 11:29:27;;;;;;;6.85;1.77;;;23.90;99.90;;;;;;10308371;28;20202;-81
2023/06/27 11:34:48;;;;;;;5.10;2.03;;;23.70;99.90;;;;;;10298634;28;20206;-78
2023/06/27 11:40:16;;;;;;;9.55;2.95;;;23.00;99.90;;;;;;10343028;28;20614;-78
2023/06/27 11:45:43;;;;;;;5.53;1.90;;;21.90;99.90;;;;;;10338644;28;20197;-77
2023/06/27 11:51:07;;;;;;;7.13;1.63;;;21.20;1.00;;;;;;10355305;28;20257;-78
2023/06/27 11:56:28;;;;;;;6.93;2.03;;;21.20;1.00;;;;;;10315311;28;20218;-81
2023/06/27 12:01:51;;;;;;;5.60;1.75;;;21.40;1.00;;;;;;10314224;28;20201;-79
2023/06/27 12:07:17;;;;;;;3.65;1.40;;;22.40;1.00;;;;;;10340535;28;20216;-80
2023/06/27 12:12:39;;;;;;;26.48;6.38;;;22.70;1.00;;;;;;10332706;28;20210;-79
2023/06/27 12:18:02;;;;;;;6.55;2.40;;;22.90;1.00;;;;;;10350058;28;20516;-80
2023/06/27 12:23:27;;;;;;;4.53;1.33;;;22.60;1.00;;;;;;10354277;28;20190;-81
2023/06/27 12:29:00;;;;;;;6.28;1.95;;;22.20;1.00;;;;;;10364484;28;20216;-78
2023/06/27 12:34:21;;;;;;;6.30;1.95;;;21.80;1.00;;;;;;10336461;28;20210;-78
2023/06/27 12:39:42;;;;;;;35.75;2.53;;;22.20;1.00;;;;;;10313058;28;20461;-80
2023/06/27 12:45:04;;;;;;;4.13;1.48;;;22.80;1.00;;;;;;10329455;28;20225;-79
2023/06/27 12:50:26;;;;;;;5.15;1.60;;;23.20;1.00;;;;;;10346307;28;20807;-79
2023/06/27 12:55:47;;;;;;;5.72;1.60;;;23.60;1.00;;;;;;10343006;28;20393;-79
2023/06/27 13:01:09;;;;;;;5.03;1.55;;;23.60;1.00;;;;;;10314803;28;20201;-80
2023/06/27 13:06:31;;;;;;;7.15;1.77;;;23.10;1.00;;;;;;10352425;28;20403;-82
2023/06/27 13:11:54;;;;;;;6.32;1.58;;;22.80;1.00;;;;;;10324486;28;20228;-81
2023/06/27 13:17:16;;;;;;;6.65;1.67;;;23.40;1.00;;;;;;10336688;28;20241;-81
2023/06/27 13:22:37;;;;;;;5.30;1.75;;;23.40;1.00;;;;;;10350852;28;20213;-79
2023/06/27 13:27:59;;;;;;;15.55;1.83;;;23.00;1.00;;;;;;10348603;28;20209;-80
2023/06/27 13:33:20;;;;;;;8.63;2.17;;;22.80;1.00;;;;;;10319525;28;20558;-78
2023/06/27 13:38:41;;;;;;;6.38;1.85;;;22.70;1.00;;;;;;10324015;28;20484;-79
2023/06/27 13:44:02;;;;;;;6.03;2.40;;;22.30;1.00;;;;;;10310559;28;20202;-79
2023/06/27 13:49:25;;;;;;;6.45;1.73;;;22.30;1.00;;;;;;10316831;28;20214;-77
2023/06/27 13:54:46;;;;;;;7.45;1.83;;;22.20;1.00;;;;;;10350852;28;20193;-80
2023/06/27 14:00:09;;;;;;;7.43;1.38;;;22.10;1.00;;;;;;10344084;28;20433;-78
2023/06/27 14:05:34;;;;;;;6.97;1.80;;;22.00;1.00;;;;;;10332790;28;20264;-78
2023/06/27 14:10:55;;;;;;;4.03;1.40;;;21.80;1.00;;;;;;10310300;28;20187;-79
2023/06/27 14:16:18;;;;;;;3.67;1.30;;;21.70;1.00;;;;;;10296559;28;20272;-78
2023/06/27 14:21:39;;;;;;;2.55;1.23;;;21.30;1.00;;;;;;10351147;28;20221;-79
2023/06/27 14:27:01;;;;;;;7.53;1.50;;;21.30;1.00;;;;;;10349727;28;20523;-78
2023/06/27 14:32:22;;;;;;;9.45;2.20;;;21.30;1.00;;;;;;10362506;28;20408;-77
2023/06/27 14:37:44;;;;;;;5.20;1.70;;;21.10;1.00;;;;;;10348436;28;20571;-81
2023/06/27 14:43:05;;;;;;;10.30;1.60;;;21.00;1.00;;;;;;10350115;28;20193;-79
2023/06/27 14:48:26;;;;;;;4.03;1.80;;;21.00;1.00;;;;;;10349828;28;20327;-79
2023/06/27 14:53:48;;;;;;;7.72;2.13;;;20.90;1.00;;;;;;10361535;28;20188;-79
2023/06/27 14:59:12;;;;;;;4.57;1.58;;;20.80;1.00;;;;;;10362149;28;20221;-78
2023/06/27 15:04:34;;;;;;;3.60;1.55;;;20.70;1.00;;;;;;10351239;28;20234;-80
2023/06/27 15:09:56;;;;;;;7.05;1.70;;;20.60;99.90;;;;;;10313070;28;20249;-78
2023/06/27 15:15:18;;;;;;;3.90;1.30;;;20.60;99.90;;;;;;10335442;28;20377;-79
2023/06/27 15:20:39;;;;;;;4.85;1.65;;;20.60;99.90;;;;;;10353520;28;20296;-81
2023/06/27 15:26:01;;;;;;;8.07;1.75;;;20.70;99.90;;;;;;10359191;28;20397;-79
2023/06/27 15:31:22;;;;;;;5.30;1.50;;;20.60;99.90;;;;;;10357771;28;20201;-79
2023/06/27 15:36:43;;;;;;;5.50;2.05;;;20.50;99.90;;;;;;10357399;28;20220;-79
2023/06/27 15:42:06;;;;;;;6.57;1.73;;;20.50;99.90;;;;;;10359603;28;20278;-80
2023/06/27 15:47:27;;;;;;;6.95;2.00;;;20.40;99.90;;;;;;10346673;28;20204;-80
2023/06/27 15:52:51;;;;;;;7.80;1.98;;;20.40;99.90;;;;;;10360298;28;20204;-79
2023/06/27 15:58:13;;;;;;;5.45;2.08;;;20.30;99.90;;;;;;10361090;28;20221;-79
2023/06/27 16:03:34;;;;;;;4.72;1.30;;;20.50;99.90;;;;;;10360827;28;20311;-80
2023/06/27 16:08:55;;;;;;;6.97;1.35;;;20.50;99.90;;;;;;10359967;28;20201;-79
2023/06/27 16:14:16;;;;;;;2.33;1.10;;;20.60;99.90;;;;;;10324342;28;20495;-80
2023/06/27 16:19:40;;;;;;;7.43;1.20;;;20.50;99.90;;;;;;10345477;28;20388;-79
2023/06/27 16:25:02;;;;;;;8.18;1.63;;;20.50;99.90;;;;;;10360432;28;20201;-79
2023/06/27 16:30:23;;;;;;;4.63;1.73;;;20.40;99.90;;;;;;10372880;28;20200;-79
2023/06/27 16:35:44;;;;;;;9.95;2.10;;;20.40;99.90;;;;;;10344835;28;20216;-78
2023/06/27 16:41:05;;;;;;;8.25;1.67;;;20.30;99.90;;;;;;10331070;28;20256;-79
2023/06/27 16:46:27;;;;;;;9.38;1.77;;;20.10;99.90;;;;;;10372145;28;20202;-80
2023/06/27 16:51:49;;;;;;;6.85;1.45;;;19.90;99.90;;;;;;10330650;28;20240;-78
2023/06/27 16:57:10;;;;;;;3.30;1.40;;;19.80;99.90;;;;;;10330737;28;20221;-80
2023/06/27 17:02:31;;;;;;;2.97;1.30;;;19.70;99.90;;;;;;10330113;28;20275;-80
2023/06/27 17:07:56;;;;;;;5.75;1.60;;;19.70;99.90;;;;;;10357641;28;20363;-82
2023/06/27 17:13:18;;;;;;;4.82;1.45;;;19.60;99.90;;;;;;10363562;28;20381;-80
2023/06/27 17:18:39;;;;;;;3.90;1.50;;;19.60;99.90;;;;;;10343131;28;20225;-82
2023/06/27 17:24:00;;;;;;;8.85;1.63;;;19.50;99.90;;;;;;10357363;28;20480;-80
2023/06/27 17:29:22;;;;;;;6.03;1.60;;;19.40;99.90;;;;;;10343129;28;20439;-80
2023/06/27 17:34:43;;;;;;;3.75;1.38;;;19.30;99.90;;;;;;10357393;28;20194;-80
2023/06/27 17:40:05;;;;;;;7.38;1.52;;;19.30;99.90;;;;;;10356231;28;20420;-79
2023/06/27 17:45:26;;;;;;;7.70;1.52;;;19.30;99.90;;;;;;10355661;28;20198;-80
2023/06/27 17:50:48;;;;;;;5.57;1.48;;;19.20;99.90;;;;;;10342011;28;20260;-80
2023/06/27 17:56:09;;;;;;;4.22;1.55;;;19.10;99.90;;;;;;10356103;28;20492;-82
2023/06/27 18:01:30;;;;;;;6.88;1.63;;;18.90;99.90;;;;;;10355439;28;20221;-81
2023/06/27 18:06:52;;;;;;;8.65;1.92;;;18.90;99.90;;;;;;10341802;28;20198;-81
2023/06/27 18:12:13;;;;;;;6.78;1.77;;;18.90;99.90;;;;;;10336671;28;20277;-80
2023/06/27 18:17:34;;;;;;;5.15;1.85;;;18.80;1.00;;;;;;10354575;28;20229;-82
2023/06/27 18:22:56;;;;;;;6.10;1.95;;;18.80;1.00;;;;;;10341139;28;20389;-80
2023/06/27 18:28:17;;;;;;;8.82;1.67;;;18.80;1.00;;;;;;10340782;28;20289;-82
2023/06/27 18:33:38;;;;;;;5.13;1.63;;;18.80;1.00;;;;;;10355388;28;20198;-81
2023/06/27 18:39:04;;;;;;;4.75;1.63;;;18.60;1.00;;;;;;10354278;28;20256;-82
2023/06/27 18:44:26;;;;;;;4.75;1.85;;;18.60;1.00;;;;;;10355174;28;20316;-80
2023/06/27 18:49:47;;;;;;;3.25;1.70;;;18.50;1.00;;;;;;10368053;28;20236;-82
2023/06/27 18:55:09;;;;;;;7.53;1.98;;;18.50;1.00;;;;;;10354317;28;20197;-81
2023/06/27 19:00:30;;;;;;;6.05;1.73;;;18.40;1.00;;;;;;10346248;28;20535;-81
2023/06/27 19:05:51;;;;;;;3.90;1.35;;;18.40;1.00;;;;;;10348474;28;20246;-82
2023/06/27 19:11:12;;;;;;;4.78;1.80;;;18.30;1.00;;;;;;10363377;28;20190;-82
2023/06/27 19:16:34;;;;;;;3.25;1.25;;;18.30;1.00;;;;;;10367928;28;20279;-80
2023/06/27 19:21:59;;;;;;;6.75;1.73;;;18.30;1.00;;;;;;10347844;28;20492;-82
2023/06/27 19:27:20;;;;;;;5.20;1.40;;;18.20;1.00;;;;;;10361267;28;20437;-81
2023/06/27 19:32:42;;;;;;;4.75;1.20;;;18.10;1.00;;;;;;10361696;28;20276;-82
2023/06/27 19:38:03;;;;;;;6.30;1.60;;;18.00;1.00;;;;;;10347537;28;20308;-81
2023/06/27 19:43:24;;;;;;;4.05;1.55;;;18.00;1.00;;;;;;10347201;28;20201;-79
2023/06/27 19:48:45;;;;;;;4.53;1.58;;;18.00;1.00;;;;;;10361047;28;20197;-81
2023/06/27 19:54:07;;;;;;;5.38;1.58;;;18.00;1.00;;;;;;10360341;28;20205;-79
2023/06/27 19:59:28;;;;;;;5.20;1.88;;;18.00;1.00;;;;;;10360050;28;20232;-80
2023/06/27 20:04:50;;;;;;;5.53;1.55;;;17.90;1.00;;;;;;10346095;28;20226;-80
2023/06/27 20:10:16;;;;;;;3.47;1.45;;;17.90;1.00;;;;;;10345456;28;20268;-79
2023/06/27 20:15:38;;;;;;;4.22;1.13;;;17.80;1.00;;;;;;10351496;28;20202;-81
2023/06/27 20:20:59;;;;;;;5.47;1.63;;;17.70;1.00;;;;;;10359171;28;20461;-79
2023/06/27 20:26:22;;;;;;;4.22;1.63;;;17.60;1.00;;;;;;10359004;28;20201;-82
2023/06/27 20:31:43;;;;;;;6.47;1.55;;;17.60;1.00;;;;;;10359075;28;20205;-81
2023/06/27 20:37:05;;;;;;;2.90;1.33;;;17.60;1.00;;;;;;10331746;28;20201;-80
2023/06/27 20:42:26;;;;;;;4.53;1.38;;;17.60;1.00;;;;;;10358359;28;20480;-81
2023/06/27 20:47:47;;;;;;;4.82;1.52;;;17.70;1.00;;;;;;10358228;28;20205;-81
2023/06/27 20:53:09;;;;;;;8.00;1.58;;;17.60;1.00;;;;;;10358188;28;20205;-81
2023/06/27 20:58:30;;;;;;;4.63;1.55;;;17.50;1.00;;;;;;10343930;28;20705;-81
2023/06/27 21:03:51;;;;;;;4.03;1.25;;;17.40;1.00;;;;;;10344264;28;20236;-80
2023/06/27 21:09:13;;;;;;;9.20;1.52;;;17.30;1.00;;;;;;10357833;28;20509;-80
2023/06/27 21:14:34;;;;;;;5.30;1.67;;;17.30;1.00;;;;;;10335992;28;20435;-82
2023/06/27 21:19:55;;;;;;;7.75;1.83;;;17.20;1.00;;;;;;10342661;28;20305;-81
2023/06/27 21:25:16;;;;;;;9.13;1.98;;;17.30;1.00;;;;;;10358118;28;20434;-79
2023/06/27 21:30:38;;;;;;;5.30;1.63;;;;;;;;;;10356635;28;20252;-79
2023/06/27 21:36:00;;;;;;;5.13;1.50;;;;;;;;;;10356646;28;20250;-79
2023/06/27 21:41:22;;;;;;;4.22;1.73;;;;;;;;;;10356106;28;20229;-80
2023/06/27 21:46:43;;;;;;;3.05;1.13;;;;;;;;;;10356354;28;20523;-81
2023/06/27 21:52:05;;;;;;;7.32;1.40;;;;;;;;;;10356217;28;20197;-79
2023/06/27 21:57:26;;;;;;;4.75;1.80;;;;;;;;;;10355437;28;20220;-80
2023/06/27 22:02:49;;;;;;;4.78;1.50;;;;;;;;;;10369268;28;20312;-81
2023/06/27 22:08:11;;;;;;;3.95;1.10;;;;;;;;;;10356360;28;20222;-81
2023/06/27 22:13:33;;;;;;;4.63;1.45;;;;;;;;;;10348248;28;20201;-79
2023/06/27 22:18:55;;;;;;;4.25;1.15;;;;;;;;;;10340909;28;20283;-79
2023/06/27 22:24:18;;;;;;;5.45;1.58;;;;;;;;;;10354956;28;20205;-81
2023/06/27 22:29:39;;;;;;;4.28;1.52;;;;;;;;;;10354777;28;20228;-80
2023/06/27 22:35:01;;;;;;;4.70;1.55;;;;;;;;;;10354875;28;20198;-82
2023/06/27 22:40:23;;;;;;;3.92;1.30;;;;;;;;;;10354201;28;20236;-80
2023/06/27 22:45:45;;;;;;;4.20;1.20;;;;;;;;;;10354435;28;20204;-79
2023/06/27 22:51:06;;;;;;;6.70;1.92;;;;;;;;;;10355256;28;20200;-80
2023/06/27 22:56:30;;;;;;;2.72;1.15;;;;;;;;;;10340647;28;20211;-81
2023/06/27 23:01:52;;;;;;;4.45;1.80;;;;;;;;;;10353815;28;20283;-80
2023/06/27 23:07:14;;;;;;;4.88;1.50;;;;;;;;;;10353761;28;20224;-82
2023/06/27 23:12:35;;;;;;;8.35;3.42;;;;;;;;;;10346193;28;20266;-81
2023/06/27 23:17:58;;;;;;;4.10;1.38;;;;;;;;;;10314800;28;20254;-80
2023/06/27 23:23:21;;;;;;;8.45;1.60;;;16.70;1.00;;;;;;10353299;28;20205;-80
2023/06/27 23:29:00;;;;;;;4.80;1.42;;;16.80;1.00;;;;;;10353698;28;20200;-80
2023/06/27 23:34:23;;;;;;;4.97;1.42;;;;;;;;;;10341586;28;20199;-81
2023/06/27 23:39:45;;;;;;;4.60;1.10;;;;;;;;;;10370841;28;20291;-81
2023/06/27 23:45:07;;;;;;;7.65;1.50;;;;;;;;;;10367318;28;20198;-80
2023/06/27 23:50:28;;;;;;;7.50;1.92;;;;;;;;;;10383808;28;20219;-81
2023/06/27 23:55:50;;;;;;;3.88;1.40;;;;;;;;;;10367013;28;20464;-81
